Time;durP1;ratioP1;P1;durP2;ratioP2;P2;SDS_P1;SDS_P2;PMS_P1;PMS_P2;Temp;Humidity;BMP_temperature;BMP_pressure;BME280_temperature;BME280_humidity;BME280_pressure;Samples;Min_cycle;Max_cycle;Signal;HPM_P1;HPM_P2
2021/06/13 00:00:36;;;;;;;7.90;6.60;;;17.80;99.90;;;;;;4871304;29;20510;-84
2021/06/13 00:03:02;;;;;;;7.60;6.80;;;17.80;99.90;;;;;;4870976;29;20471;-84
2021/06/13 00:05:29;;;;;;;9.13;8.27;;;17.80;99.90;;;;;;4871477;29;20466;-84
2021/06/13 00:07:55;;;;;;;8.53;7.90;;;17.80;99.90;;;;;;4871830;29;20867;-84
2021/06/13 00:10:22;;;;;;;8.07;7.27;;;17.80;99.90;;;;;;4871065;29;20472;-84
2021/06/13 00:12:49;;;;;;;8.10;7.40;;;17.80;99.90;;;;;;4869744;29;20482;-81
2021/06/13 00:15:20;;;;;;;8.30;7.23;;;17.80;99.90;;;;;;4872154;29;20461;-84
2021/06/13 00:17:47;;;;;;;8.03;7.23;;;17.90;99.90;;;;;;4870731;29;20469;-84
2021/06/13 00:20:16;;;;;;;8.00;7.30;;;17.90;99.90;;;;;;4871121;29;21066;-84
2021/06/13 00:22:43;;;;;;;7.80;7.10;;;18.00;99.90;;;;;;4871026;29;20967;-84
2021/06/13 00:25:11;;;;;;;8.57;7.67;;;18.10;99.90;;;;;;4871082;29;20543;-84
2021/06/13 00:27:38;;;;;;;7.20;6.60;;;18.00;99.90;;;;;;4870757;29;20481;-83
2021/06/13 00:30:07;;;;;;;11.80;6.73;;;18.00;99.90;;;;;;4870371;29;20468;-84
2021/06/13 00:32:35;;;;;;;8.50;7.77;;;18.00;99.90;;;;;;4869521;29;20480;-84
2021/06/13 00:35:01;;;;;;;9.17;8.27;;;18.10;99.90;;;;;;4872011;29;20486;-82
2021/06/13 00:37:27;;;;;;;7.37;6.77;;;18.30;99.90;;;;;;4870522;29;20543;-84
2021/06/13 00:39:53;;;;;;;7.47;6.83;;;18.30;99.90;;;;;;4870359;29;20497;-84
2021/06/13 00:42:20;;;;;;;8.30;7.40;;;18.30;99.90;;;;;;4869725;29;20480;-84
2021/06/13 00:44:46;;;;;;;7.53;6.93;;;18.20;99.90;;;;;;4870455;29;20540;-84
2021/06/13 00:47:13;;;;;;;7.70;6.87;;;18.20;99.90;;;;;;4870688;29;20464;-84
2021/06/13 00:49:40;;;;;;;7.47;6.77;;;18.20;99.90;;;;;;4870700;29;20978;-82
2021/06/13 00:52:07;;;;;;;8.53;6.90;;;18.30;99.90;;;;;;4869293;29;20481;-83
2021/06/13 00:54:34;;;;;;;9.10;8.40;;;18.20;99.90;;;;;;4870503;29;20456;-84
2021/06/13 00:57:00;;;;;;;7.47;6.60;;;18.20;99.90;;;;;;4868183;29;20467;-83
2021/06/13 00:59:27;;;;;;;7.90;7.20;;;18.20;99.90;;;;;;4868384;29;20551;-82
2021/06/13 01:01:53;;;;;;;7.87;7.07;;;18.20;99.90;;;;;;4867815;29;20569;-80
2021/06/13 01:04:19;;;;;;;7.30;6.67;;;18.30;99.80;;;;;;4868249;29;20464;-84
2021/06/13 01:07:02;;;;;;;6.73;6.33;;;18.20;99.70;;;;;;4867657;29;20471;-82
2021/06/13 01:09:33;;;;;;;7.93;7.33;;;18.20;99.80;;;;;;4851561;29;20466;-83
2021/06/13 01:12:05;;;;;;;7.57;6.83;;;18.30;99.80;;;;;;4867571;29;20531;-83
2021/06/13 01:14:36;;;;;;;8.57;7.80;;;18.20;99.90;;;;;;4868217;29;20877;-82
2021/06/13 01:17:10;;;;;;;8.87;8.03;;;18.10;99.90;;;;;;4868346;29;20464;-82
2021/06/13 01:19:46;;;;;;;8.43;7.63;;;18.10;99.90;;;;;;4867984;29;20491;-85
2021/06/13 01:22:39;;;;;;;7.93;7.23;;;18.10;99.90;;;;;;4867387;29;20491;-83
2021/06/13 01:25:15;;;;;;;8.17;7.30;;;18.10;99.90;;;;;;4868242;29;20464;-85
2021/06/13 01:28:04;;;;;;;8.27;7.03;;;18.10;99.90;;;;;;4868465;29;20496;-85
2021/06/13 01:30:33;;;;;;;7.63;6.83;;;18.10;99.90;;;;;;4856047;29;20491;-84
2021/06/13 01:33:02;;;;;;;9.10;7.00;;;18.20;99.90;;;;;;4867798;29;20468;-85
2021/06/13 01:35:29;;;;;;;6.90;6.20;;;18.20;99.90;;;;;;4867961;29;20460;-85
2021/06/13 01:37:56;;;;;;;8.33;7.53;;;18.10;99.90;;;;;;4867944;29;20522;-85
2021/06/13 01:40:28;;;;;;;7.93;7.20;;;18.10;99.90;;;;;;4867606;29;20511;-86
2021/06/13 01:42:57;;;;;;;8.20;7.03;;;18.00;99.90;;;;;;4867913;29;20492;-82
2021/06/13 01:45:27;;;;;;;8.20;7.40;;;18.00;99.90;;;;;;4906737;23;20901;-83
2021/06/13 01:47:54;;;;;;;9.97;7.03;;;17.90;99.90;;;;;;4870863;29;20468;-83
2021/06/13 01:50:22;;;;;;;8.27;7.57;;;17.90;99.90;;;;;;4870271;29;20494;-83
2021/06/13 01:52:51;;;;;;;7.70;7.00;;;17.90;99.90;;;;;;4869803;29;20466;-83
2021/06/13 01:55:20;;;;;;;7.23;6.60;;;17.80;99.90;;;;;;4863748;29;20468;-83
2021/06/13 01:57:47;;;;;;;8.20;6.67;;;17.80;99.90;;;;;;4852585;29;20466;-83
2021/06/13 02:00:16;;;;;;;7.73;7.00;;;17.80;99.90;;;;;;4856090;29;20498;-83
2021/06/13 02:02:45;;;;;;;8.20;7.47;;;17.70;99.90;;;;;;4852513;29;20461;-83
2021/06/13 02:05:13;;;;;;;8.13;7.43;;;17.80;99.90;;;;;;4852619;29;20490;-83
2021/06/13 02:07:41;;;;;;;8.97;8.07;;;17.70;99.90;;;;;;4853093;29;20480;-83
2021/06/13 02:10:10;;;;;;;7.80;7.10;;;17.70;99.90;;;;;;4853368;29;20464;-83
2021/06/13 02:12:38;;;;;;;7.23;6.73;;;17.70;99.90;;;;;;4853457;29;20461;-83
2021/06/13 02:15:06;;;;;;;9.40;7.10;;;17.70;99.90;;;;;;4853737;29;20509;-83
2021/06/13 02:17:34;;;;;;;8.33;7.67;;;17.60;99.90;;;;;;4861379;29;20468;-83
2021/06/13 02:20:01;;;;;;;8.03;7.27;;;17.50;99.90;;;;;;4869096;29;20494;-83
2021/06/13 02:22:29;;;;;;;9.23;7.27;;;17.50;99.90;;;;;;4869331;29;20451;-83
2021/06/13 02:24:55;;;;;;;8.93;8.03;;;17.50;99.90;;;;;;4869278;29;20495;-83
2021/06/13 02:27:25;;;;;;;8.47;7.77;;;17.40;99.90;;;;;;4861862;29;20525;-83
2021/06/13 02:29:51;;;;;;;8.33;7.40;;;17.30;99.90;;;;;;4852180;29;20477;-83
2021/06/13 02:32:18;;;;;;;8.47;7.77;;;17.30;99.90;;;;;;4851322;29;21031;-83
2021/06/13 02:34:46;;;;;;;10.70;8.83;;;17.30;99.90;;;;;;4851983;29;20839;-83
2021/06/13 02:37:14;;;;;;;7.57;6.80;;;17.40;99.90;;;;;;4851307;29;20468;-83
2021/06/13 02:39:42;;;;;;;8.20;7.50;;;17.40;99.90;;;;;;4850908;29;20498;-83
2021/06/13 02:42:09;;;;;;;7.90;6.30;;;17.20;99.90;;;;;;4850894;29;20460;-83
2021/06/13 02:44:36;;;;;;;8.10;6.77;;;17.20;99.90;;;;;;4851100;29;20464;-83
2021/06/13 02:47:02;;;;;;;8.10;7.50;;;17.10;99.90;;;;;;4851422;29;20459;-83
2021/06/13 02:49:28;;;;;;;9.20;8.47;;;17.00;99.90;;;;;;4851519;29;20459;-83
2021/06/13 02:52:02;;;;;;;6.93;6.33;;;16.90;99.90;;;;;;4851332;29;20452;-83
2021/06/13 02:54:30;;;;;;;7.33;6.73;;;16.90;99.90;;;;;;4850992;29;20467;-83
2021/06/13 02:56:59;;;;;;;7.37;6.70;;;16.90;99.90;;;;;;4851872;29;20471;-83
2021/06/13 02:59:32;;;;;;;7.90;7.23;;;17.00;99.90;;;;;;4848766;29;20864;-83
2021/06/13 03:02:01;;;;;;;12.40;7.97;;;17.00;99.90;;;;;;4848700;29;20456;-83
2021/06/13 03:04:28;;;;;;;7.97;7.30;;;17.00;99.90;;;;;;4850948;29;20459;-83
2021/06/13 03:06:56;;;;;;;8.00;7.17;;;17.10;99.90;;;;;;4853239;29;20467;-83
2021/06/13 03:09:23;;;;;;;8.13;7.33;;;17.10;99.90;;;;;;4852427;29;20461;-83
2021/06/13 03:11:50;;;;;;;6.70;6.13;;;17.10;99.90;;;;;;4852474;29;20460;-83
2021/06/13 03:14:19;;;;;;;7.13;6.40;;;17.20;99.90;;;;;;4853154;29;20475;-83
2021/06/13 03:16:46;;;;;;;9.03;7.83;;;17.20;99.90;;;;;;4853708;29;20463;-82
2021/06/13 03:19:14;;;;;;;7.30;6.60;;;17.10;99.90;;;;;;4852423;29;20542;-82
2021/06/13 03:21:41;;;;;;;9.17;6.33;;;17.10;99.90;;;;;;4852199;29;20455;-83
2021/06/13 03:24:08;;;;;;;6.27;5.77;;;17.10;99.90;;;;;;4850197;29;20456;-83
2021/06/13 03:26:37;;;;;;;7.37;6.67;;;17.20;99.90;;;;;;4849142;29;20477;-83
2021/06/13 03:29:05;;;;;;;8.23;7.47;;;17.20;99.90;;;;;;4848796;29;20467;-83
2021/06/13 03:31:33;;;;;;;8.17;7.40;;;17.20;99.90;;;;;;4849793;29;20475;-83
2021/06/13 03:34:00;;;;;;;7.50;6.80;;;17.30;99.90;;;;;;4849535;29;20527;-83
2021/06/13 03:36:28;;;;;;;7.20;6.60;;;17.20;99.90;;;;;;4849887;29;20518;-83
2021/06/13 03:38:56;;;;;;;8.40;7.70;;;17.10;99.90;;;;;;4849582;29;20463;-83
2021/06/13 03:41:24;;;;;;;8.77;7.33;;;17.00;99.90;;;;;;4850885;29;20465;-83
2021/06/13 03:43:53;;;;;;;7.60;6.03;;;17.00;99.90;;;;;;4850171;29;20503;-83
2021/06/13 03:46:20;;;;;;;8.33;7.53;;;17.00;99.90;;;;;;4849842;29;20497;-83
2021/06/13 03:48:51;;;;;;;7.00;6.47;;;17.00;99.90;;;;;;4850272;29;20455;-83
2021/06/13 03:51:19;;;;;;;7.33;6.57;;;17.00;99.90;;;;;;4850796;29;20468;-83
2021/06/13 03:53:54;;;;;;;6.67;6.07;;;16.90;99.90;;;;;;4849462;29;20459;-83
2021/06/13 03:56:22;;;;;;;6.60;5.90;;;16.90;99.90;;;;;;4849832;29;20484;-83
2021/06/13 03:58:51;;;;;;;6.93;5.60;;;16.80;99.90;;;;;;4849855;29;20962;-83
2021/06/13 04:01:20;;;;;;;8.13;6.70;;;16.80;99.90;;;;;;4850682;29;20464;-83
2021/06/13 04:03:50;;;;;;;6.30;5.57;;;16.90;99.90;;;;;;4849329;29;20476;-83
2021/06/13 04:06:19;;;;;;;6.70;6.03;;;16.90;99.90;;;;;;4848148;29;20486;-83
2021/06/13 04:08:47;;;;;;;7.10;6.40;;;16.70;99.90;;;;;;4847867;29;20463;-83
2021/06/13 04:11:14;;;;;;;6.63;6.10;;;16.80;99.90;;;;;;4848512;29;20485;-83
2021/06/13 04:13:42;;;;;;;10.70;6.10;;;16.80;99.90;;;;;;4848433;29;20460;-83
2021/06/13 04:16:10;;;;;;;7.10;6.20;;;16.80;99.90;;;;;;4849232;29;20485;-83
2021/06/13 04:18:38;;;;;;;7.03;5.60;;;16.80;99.90;;;;;;4848193;29;20452;-83
2021/06/13 04:21:09;;;;;;;6.77;6.10;;;16.90;99.90;;;;;;4848156;29;20909;-83
2021/06/13 04:23:36;;;;;;;7.50;6.73;;;16.80;99.90;;;;;;4848776;29;20467;-83
2021/06/13 04:26:03;;;;;;;6.50;5.90;;;16.80;99.90;;;;;;4848382;29;20483;-83
2021/06/13 04:28:30;;;;;;;6.27;5.77;;;16.70;99.90;;;;;;4847290;29;20512;-83
2021/06/13 04:31:11;;;;;;;6.83;6.20;;;16.80;99.90;;;;;;4847798;29;20464;-83
2021/06/13 04:33:39;;;;;;;6.33;5.73;;;16.70;99.90;;;;;;4847850;29;20459;-83
2021/06/13 04:36:08;;;;;;;5.90;5.30;;;16.80;99.90;;;;;;4848767;29;20567;-83
2021/06/13 04:38:35;;;;;;;6.60;6.00;;;16.80;99.90;;;;;;4855844;29;20468;-83
2021/06/13 04:41:03;;;;;;;6.43;5.83;;;16.80;99.90;;;;;;4853401;29;20496;-83
2021/06/13 04:43:30;;;;;;;5.93;5.40;;;16.80;99.90;;;;;;4854362;29;21107;-83
2021/06/13 04:45:57;;;;;;;7.50;6.80;;;16.70;99.90;;;;;;4855355;29;20492;-83
2021/06/13 04:48:24;;;;;;;6.57;5.50;;;16.70;99.90;;;;;;4857198;29;20454;-83
2021/06/13 04:50:51;;;;;;;6.60;6.00;;;16.70;99.90;;;;;;4856853;29;20459;-83
2021/06/13 04:53:48;;;;;;;8.90;6.43;;;16.60;99.90;;;;;;4857070;29;20545;-83
2021/06/13 04:56:21;;;;;;;9.53;6.63;;;16.60;99.90;;;;;;4855917;29;20518;-82
2021/06/13 04:58:48;;;;;;;6.97;5.90;;;16.60;99.90;;;;;;4855312;29;20485;-83
2021/06/13 05:01:15;;;;;;;6.00;5.50;;;16.50;99.90;;;;;;4854830;29;20505;-83
2021/06/13 05:03:43;;;;;;;10.57;5.87;;;16.40;99.90;;;;;;4856337;29;20467;-83
2021/06/13 05:06:10;;;;;;;6.97;6.27;;;16.40;99.90;;;;;;4856030;29;20478;-83
2021/06/13 05:08:40;;;;;;;7.90;6.20;;;16.40;99.90;;;;;;4855995;29;20453;-83
2021/06/13 05:11:07;;;;;;;7.10;5.60;;;16.30;99.90;;;;;;4855694;29;20451;-83
2021/06/13 05:13:34;;;;;;;5.43;4.93;;;16.30;99.90;;;;;;4856291;29;20461;-83
2021/06/13 05:16:00;;;;;;;6.93;6.23;;;16.30;99.90;;;;;;4855905;29;20481;-83
2021/06/13 05:18:28;;;;;;;6.37;5.87;;;16.30;99.90;;;;;;4856533;29;20451;-83
2021/06/13 05:20:54;;;;;;;8.43;6.03;;;16.30;99.90;;;;;;4856023;29;20511;-83
2021/06/13 05:23:22;;;;;;;6.23;5.57;;;16.30;99.90;;;;;;4853502;29;20842;-83
2021/06/13 05:25:51;;;;;;;7.23;5.70;;;16.30;99.90;;;;;;4852609;29;20484;-83
2021/06/13 05:28:18;;;;;;;5.80;5.40;;;16.30;99.90;;;;;;4850247;29;20459;-83
2021/06/13 05:30:46;;;;;;;7.03;6.43;;;16.40;99.90;;;;;;4853055;29;20448;-83
2021/06/13 05:33:13;;;;;;;6.67;5.63;;;16.30;99.90;;;;;;4855978;29;20454;-82
2021/06/13 05:35:41;;;;;;;5.60;5.00;;;16.30;99.90;;;;;;4850592;29;20484;-83
2021/06/13 05:38:09;;;;;;;6.73;6.13;;;16.30;99.90;;;;;;4850886;29;20813;-83
2021/06/13 05:40:37;;;;;;;5.63;5.17;;;16.30;99.90;;;;;;4850343;29;20503;-83
2021/06/13 05:43:06;;;;;;;6.03;5.50;;;16.40;99.90;;;;;;4851625;29;20463;-82
2021/06/13 05:45:33;;;;;;;5.90;5.40;;;16.60;99.90;;;;;;4848954;29;20853;-83
2021/06/13 05:48:00;;;;;;;5.47;4.97;;;16.50;99.90;;;;;;4848122;29;20482;-82
2021/06/13 05:50:27;;;;;;;5.53;5.10;;;16.60;99.90;;;;;;4857544;29;20455;-83
2021/06/13 05:52:54;;;;;;;6.50;5.90;;;16.70;99.90;;;;;;4857564;29;20834;-83
2021/06/13 05:55:22;;;;;;;5.53;4.87;;;16.70;99.90;;;;;;4855373;29;20486;-82
2021/06/13 05:57:49;;;;;;;7.73;5.77;;;16.70;99.60;;;;;;4864305;29;20492;-83
2021/06/13 06:00:21;;;;;;;5.87;5.37;;;16.80;99.70;;;;;;4863838;29;20491;-83
2021/06/13 06:02:48;;;;;;;6.53;5.93;;;16.90;99.70;;;;;;4855737;29;20501;-83
2021/06/13 06:05:16;;;;;;;6.07;5.50;;;16.90;99.10;;;;;;4857502;29;20589;-83
2021/06/13 06:07:43;;;;;;;7.73;4.83;;;17.00;99.10;;;;;;4859793;29;20451;-83
2021/06/13 06:10:12;;;;;;;6.10;5.50;;;17.10;99.20;;;;;;4863255;29;20946;-82
2021/06/13 06:12:39;;;;;;;6.13;5.53;;;17.20;99.10;;;;;;4869725;29;20451;-83
2021/06/13 06:15:08;;;;;;;7.03;5.20;;;17.20;98.70;;;;;;4870928;29;20486;-83
2021/06/13 06:17:36;;;;;;;6.03;5.30;;;17.30;98.70;;;;;;4869508;29;20456;-83
2021/06/13 06:20:05;;;;;;;6.03;5.00;;;17.30;98.80;;;;;;4864190;29;20502;-83
2021/06/13 06:22:32;;;;;;;7.80;5.87;;;17.20;98.50;;;;;;4868601;29;20456;-83
2021/06/13 06:24:59;;;;;;;5.73;5.30;;;17.30;98.50;;;;;;4868089;29;20479;-83
2021/06/13 06:27:25;;;;;;;5.57;4.97;;;17.30;98.40;;;;;;4869445;29;20451;-83
2021/06/13 06:29:52;;;;;;;6.03;5.50;;;17.40;98.10;;;;;;4870085;29;20938;-83
2021/06/13 06:32:19;;;;;;;4.77;4.37;;;17.50;97.80;;;;;;4868890;29;20492;-83
2021/06/13 06:34:47;;;;;;;6.40;5.20;;;17.50;98.00;;;;;;4868035;29;20463;-83
2021/06/13 06:37:14;;;;;;;5.40;4.90;;;17.60;98.40;;;;;;4867673;29;20900;-83
2021/06/13 06:39:41;;;;;;;4.80;4.33;;;17.70;98.30;;;;;;4865704;29;20455;-83
2021/06/13 06:42:08;;;;;;;5.90;5.40;;;17.80;98.30;;;;;;4867374;29;20452;-83
2021/06/13 06:44:34;;;;;;;5.57;5.07;;;17.90;97.90;;;;;;4869298;29;20443;-83
2021/06/13 06:47:02;;;;;;;6.00;5.40;;;17.90;97.70;;;;;;4867193;29;20945;-83
2021/06/13 06:49:29;;;;;;;5.63;4.13;;;17.80;97.40;;;;;;4868267;29;20484;-82
2021/06/13 06:51:58;;;;;;;5.30;4.77;;;17.80;97.60;;;;;;4865740;29;20467;-83
2021/06/13 06:54:25;;;;;;;16.30;5.20;;;17.90;97.60;;;;;;4866311;29;20460;-83
2021/06/13 06:56:52;;;;;;;5.50;4.20;;;18.00;97.40;;;;;;4868704;29;20465;-83
2021/06/13 06:59:19;;;;;;;4.97;4.50;;;18.00;97.30;;;;;;4866888;29;20470;-83
2021/06/13 07:01:46;;;;;;;4.90;4.37;;;18.00;97.30;;;;;;4866254;29;20498;-83
2021/06/13 07:04:12;;;;;;;5.93;5.30;;;18.10;97.20;;;;;;4867959;29;20450;-83
2021/06/13 07:06:39;;;;;;;4.80;4.40;;;18.20;97.50;;;;;;4870156;29;20490;-83
2021/06/13 07:09:07;;;;;;;5.53;5.13;;;18.20;97.40;;;;;;4870983;29;20832;-83
2021/06/13 07:11:34;;;;;;;5.37;4.97;;;18.20;96.60;;;;;;4868654;29;20480;-83
2021/06/13 07:14:01;;;;;;;6.60;4.87;;;18.30;96.60;;;;;;4869099;29;20467;-83
2021/06/13 07:16:27;;;;;;;7.07;5.80;;;18.20;96.30;;;;;;4869515;29;20479;-83
2021/06/13 07:18:54;;;;;;;11.73;5.10;;;18.30;95.80;;;;;;4873871;29;20460;-83
2021/06/13 07:21:21;;;;;;;5.47;5.00;;;18.30;96.50;;;;;;4873669;29;20499;-83
2021/06/13 07:23:47;;;;;;;6.73;4.80;;;18.30;96.70;;;;;;4872565;29;20832;-82
2021/06/13 07:26:15;;;;;;;5.00;4.60;;;18.30;96.70;;;;;;4875229;29;20480;-82
2021/06/13 07:28:42;;;;;;;6.43;5.87;;;18.30;96.80;;;;;;4875864;29;20468;-82
2021/06/13 07:31:09;;;;;;;5.40;4.17;;;18.30;96.50;;;;;;4873889;29;20467;-81
2021/06/13 07:33:36;;;;;;;6.27;5.63;;;18.40;96.50;;;;;;4874770;29;20457;-81
2021/06/13 07:36:05;;;;;;;4.47;4.17;;;18.40;96.50;;;;;;4876860;29;20472;-81
2021/06/13 07:38:31;;;;;;;5.87;5.37;;;18.40;96.20;;;;;;4878546;29;20516;-81
2021/06/13 07:40:59;;;;;;;10.77;5.03;;;18.40;96.60;;;;;;4875166;29;20498;-81
2021/06/13 07:43:27;;;;;;;5.67;4.90;;;18.50;96.70;;;;;;4875833;29;20876;-81
2021/06/13 07:45:54;;;;;;;5.23;4.73;;;18.60;96.50;;;;;;4893367;23;21009;-79
2021/06/13 07:48:20;;;;;;;7.17;4.70;;;18.50;96.20;;;;;;4866366;29;20457;-79
2021/06/13 07:50:47;;;;;;;5.47;4.97;;;18.50;96.10;;;;;;4865641;29;20586;-79
2021/06/13 07:53:14;;;;;;;5.80;5.40;;;18.70;96.40;;;;;;4866283;29;20490;-79
2021/06/13 07:55:41;;;;;;;7.60;5.00;;;18.70;96.10;;;;;;4859596;29;20472;-79
2021/06/13 07:58:10;;;;;;;5.90;4.83;;;18.80;96.00;;;;;;4849444;29;20461;-80
2021/06/13 08:00:39;;;;;;;4.87;4.47;;;18.90;96.20;;;;;;4845546;29;20532;-79
2021/06/13 08:03:07;;;;;;;5.20;4.70;;;19.00;96.00;;;;;;4846095;29;20838;-78
2021/06/13 08:05:35;;;;;;;6.10;5.43;;;19.00;95.90;;;;;;4845671;29;20480;-79
2021/06/13 08:08:06;;;;;;;8.30;7.60;;;19.00;96.10;;;;;;4845646;29;20560;-79
2021/06/13 08:10:33;;;;;;;12.27;5.57;;;18.90;95.80;;;;;;4845772;29;20518;-79
2021/06/13 08:13:00;;;;;;;4.80;4.40;;;19.10;96.10;;;;;;4846163;29;20461;-80
2021/06/13 08:15:28;;;;;;;5.53;5.03;;;19.00;95.70;;;;;;4846144;29;20485;-79
2021/06/13 08:17:57;;;;;;;5.33;4.83;;;19.10;95.90;;;;;;4846349;29;20458;-80
2021/06/13 08:20:24;;;;;;;5.93;5.53;;;19.00;95.20;;;;;;4845983;29;20461;-79
2021/06/13 08:22:51;;;;;;;5.60;5.20;;;19.00;95.10;;;;;;4857689;29;20453;-80
2021/06/13 08:25:20;;;;;;;5.90;5.30;;;19.10;95.20;;;;;;4862894;29;20495;-79
2021/06/13 08:27:47;;;;;;;6.60;5.37;;;19.20;96.00;;;;;;4864309;29;20460;-80
2021/06/13 08:30:16;;;;;;;6.40;5.20;;;19.40;95.40;;;;;;4864598;29;20468;-79
2021/06/13 08:32:43;;;;;;;4.67;4.27;;;19.30;95.20;;;;;;4863762;29;20487;-80
2021/06/13 08:35:12;;;;;;;4.90;4.40;;;19.40;94.80;;;;;;4863312;29;20479;-80
2021/06/13 08:37:39;;;;;;;6.13;5.63;;;19.30;94.40;;;;;;4864425;29;20464;-79
2021/06/13 08:40:09;;;;;;;5.80;4.27;;;19.40;93.90;;;;;;4865126;29;20484;-80
2021/06/13 08:42:36;;;;;;;6.17;4.57;;;19.40;94.60;;;;;;4862877;29;20500;-79
2021/06/13 08:45:04;;;;;;;5.33;4.90;;;19.40;94.10;;;;;;4862388;29;20836;-79
2021/06/13 08:47:31;;;;;;;5.17;4.00;;;19.50;94.30;;;;;;4858616;29;20458;-80
2021/06/13 08:49:58;;;;;;;6.43;4.90;;;19.60;94.40;;;;;;4863066;29;20460;-79
2021/06/13 08:52:26;;;;;;;5.50;5.00;;;19.70;95.00;;;;;;4861545;29;20456;-80
2021/06/13 08:54:53;;;;;;;4.10;3.80;;;19.70;93.70;;;;;;4862695;29;20456;-79
2021/06/13 08:57:20;;;;;;;3.93;3.50;;;19.60;93.40;;;;;;4862845;29;20457;-79
2021/06/13 08:59:47;;;;;;;6.57;5.47;;;19.60;93.20;;;;;;4862443;29;20797;-79
2021/06/13 09:02:15;;;;;;;5.73;5.33;;;19.70;92.90;;;;;;4862122;29;20497;-78
2021/06/13 09:04:41;;;;;;;6.53;4.67;;;19.70;93.40;;;;;;4863429;29;20457;-78
2021/06/13 09:07:13;;;;;;;7.30;4.57;;;19.80;93.70;;;;;;4863861;29;20831;-79
2021/06/13 09:09:42;;;;;;;4.83;4.23;;;19.70;93.30;;;;;;4864726;29;20471;-79
2021/06/13 09:12:10;;;;;;;6.47;5.17;;;19.70;93.00;;;;;;4863791;29;20460;-82
2021/06/13 09:14:41;;;;;;;5.03;3.60;;;19.70;93.40;;;;;;4864311;29;20466;-79
2021/06/13 09:17:20;;;;;;;5.60;4.80;;;19.70;92.60;;;;;;4865315;29;20465;-80
2021/06/13 09:20:17;;;;;;;4.63;4.27;;;20.00;93.70;;;;;;4863975;29;20469;-81
2021/06/13 09:23:06;;;;;;;4.40;4.00;;;20.10;92.50;;;;;;4863950;29;20504;-81
2021/06/13 09:25:34;;;;;;;6.70;5.30;;;20.10;92.30;;;;;;4862462;29;20481;-79
2021/06/13 09:28:07;;;;;;;4.60;4.20;;;20.10;92.20;;;;;;4862758;29;20493;-79
2021/06/13 09:30:35;;;;;;;5.30;4.80;;;20.10;92.10;;;;;;4862422;29;20457;-80
2021/06/13 09:33:03;;;;;;;4.03;3.63;;;20.10;92.50;;;;;;4862151;29;20461;-79
2021/06/13 09:35:30;;;;;;;4.43;4.13;;;20.20;92.60;;;;;;4861768;29;21008;-79
2021/06/13 09:38:15;;;;;;;5.27;4.77;;;20.30;93.20;;;;;;4863088;29;21727;-80
2021/06/13 09:40:51;;;;;;;6.00;4.87;;;20.50;93.70;;;;;;4862119;29;20524;-80
2021/06/13 09:43:22;;;;;;;7.20;3.80;;;20.80;92.40;;;;;;4862028;29;20970;-79
2021/06/13 09:45:51;;;;;;;4.30;3.87;;;20.80;91.90;;;;;;4862015;29;20495;-79
2021/06/13 09:48:18;;;;;;;4.90;4.13;;;20.70;91.90;;;;;;4861435;29;20457;-79
2021/06/13 09:50:47;;;;;;;4.70;4.30;;;20.70;90.90;;;;;;4861265;29;20540;-82
2021/06/13 09:53:38;;;;;;;4.40;4.10;;;20.70;91.30;;;;;;4856545;29;20465;-79
2021/06/13 09:56:13;;;;;;;4.90;4.40;;;20.70;91.40;;;;;;4857804;29;20473;-80
2021/06/13 09:58:49;;;;;;;5.13;4.37;;;20.80;91.30;;;;;;4858774;29;20453;-80
2021/06/13 10:01:17;;;;;;;5.00;4.50;;;20.80;91.10;;;;;;4858249;29;20493;-82
2021/06/13 10:03:46;;;;;;;4.13;3.83;;;20.80;90.30;;;;;;4862685;29;20461;-81
2021/06/13 10:06:14;;;;;;;4.73;4.20;;;20.80;90.50;;;;;;4862753;29;20485;-80
2021/06/13 10:08:42;;;;;;;5.20;4.70;;;20.90;90.60;;;;;;4861848;29;21036;-80
2021/06/13 10:11:11;;;;;;;4.67;4.20;;;21.00;90.30;;;;;;4862593;29;20779;-79
2021/06/13 10:13:46;;;;;;;4.30;4.10;;;21.00;90.80;;;;;;4863051;29;20551;-81
2021/06/13 10:16:32;;;;;;;4.30;4.00;;;20.90;90.50;;;;;;4862719;29;20482;-81
2021/06/13 10:19:01;;;;;;;5.20;4.70;;;21.00;90.50;;;;;;4861308;29;20467;-79
2021/06/13 10:21:34;;;;;;;4.03;3.73;;;21.30;91.60;;;;;;4861392;29;20485;-82
2021/06/13 10:24:02;;;;;;;4.70;4.30;;;21.50;91.20;;;;;;4862536;29;20815;-79
2021/06/13 10:26:30;;;;;;;5.37;4.00;;;21.70;90.40;;;;;;4861733;29;21025;-81
2021/06/13 10:28:57;;;;;;;3.93;3.73;;;21.70;89.70;;;;;;4861910;29;20813;-80
2021/06/13 10:31:24;;;;;;;3.73;3.43;;;21.90;90.10;;;;;;4861899;29;20463;-80
2021/06/13 10:33:51;;;;;;;3.37;3.03;;;22.00;87.40;;;;;;4861691;29;20462;-79
2021/06/13 10:36:18;;;;;;;3.60;3.40;;;22.20;86.80;;;;;;4862828;29;20483;-82
2021/06/13 10:38:45;;;;;;;6.40;3.27;;;22.10;82.30;;;;;;4864210;29;20470;-78
2021/06/13 10:41:12;;;;;;;3.90;3.60;;;22.20;83.00;;;;;;4866600;29;20458;-81
2021/06/13 10:44:20;;;;;;;3.73;3.43;;;22.30;84.60;;;;;;4871992;29;20451;-84
2021/06/13 10:46:53;;;;;;;4.00;3.70;;;22.30;82.10;;;;;;4870057;29;21020;-80
2021/06/13 10:49:33;;;;;;;4.13;3.80;;;22.20;81.10;;;;;;4868339;29;20466;-79
2021/06/13 10:52:05;;;;;;;3.20;2.90;;;22.30;81.90;;;;;;4872607;29;20499;-79
2021/06/13 10:54:34;;;;;;;4.60;4.20;;;22.40;81.70;;;;;;4871702;29;20450;-80
2021/06/13 10:57:36;;;;;;;3.67;3.37;;;22.50;80.50;;;;;;4830038;29;20483;-80
2021/06/13 11:00:29;;;;;;;3.87;3.57;;;22.60;78.60;;;;;;4829226;29;20471;-80
2021/06/13 11:02:59;;;;;;;4.10;3.60;;;22.70;78.60;;;;;;4824248;29;20498;-80
2021/06/13 11:05:50;;;;;;;5.03;3.93;;;22.90;81.10;;;;;;4829331;29;20892;-80
2021/06/13 11:08:18;;;;;;;3.20;3.00;;;23.40;81.60;;;;;;4819120;29;21064;-80
2021/06/13 11:10:47;;;;;;;4.13;2.70;;;23.80;79.20;;;;;;4828861;29;20458;-80
2021/06/13 11:13:16;;;;;;;3.07;2.80;;;24.10;70.40;;;;;;4828755;29;20451;-80
2021/06/13 11:15:49;;;;;;;4.60;3.10;;;24.40;67.70;;;;;;4828591;29;20487;-80
2021/06/13 11:18:28;;;;;;;2.40;2.20;;;24.80;67.70;;;;;;4830879;29;20448;-80
2021/06/13 11:21:08;;;;;;;4.10;2.80;;;25.10;65.80;;;;;;4828501;29;20461;-81
2021/06/13 11:23:59;;;;;;;3.20;3.00;;;25.70;66.00;;;;;;4827779;29;20510;-80
2021/06/13 11:26:38;;;;;;;2.87;2.67;;;26.30;69.40;;;;;;4827892;29;20488;-80
2021/06/13 11:29:10;;;;;;;3.40;3.20;;;26.80;69.70;;;;;;4827838;29;20469;-79
2021/06/13 11:31:47;;;;;;;3.67;3.47;;;27.30;63.60;;;;;;4827475;29;20462;-80
2021/06/13 11:34:14;;;;;;;2.50;2.30;;;27.50;62.30;;;;;;4827430;29;20519;-80
2021/06/13 11:36:43;;;;;;;2.80;2.60;;;27.80;59.00;;;;;;4827924;29;20480;-80
2021/06/13 11:39:23;;;;;;;2.97;2.80;;;28.00;56.20;;;;;;4827588;29;20492;-79
2021/06/13 11:41:54;;;;;;;2.10;2.00;;;28.10;54.00;;;;;;4826708;29;21014;-80
2021/06/13 11:44:41;;;;;;;2.67;2.47;;;28.30;55.80;;;;;;4827274;29;20461;-80
2021/06/13 11:47:32;;;;;;;3.17;2.20;;;28.40;52.10;;;;;;4827746;29;20535;-80
2021/06/13 11:50:02;;;;;;;3.33;2.30;;;28.80;53.50;;;;;;4825979;29;20473;-80
2021/06/13 11:53:05;;;;;;;3.53;3.13;;;29.00;51.40;;;;;;4827595;29;20459;-80
2021/06/13 11:56:07;;;;;;;2.93;2.77;;;29.20;52.70;;;;;;4827908;29;20499;-79
2021/06/13 11:58:35;;;;;;;3.40;3.20;;;29.30;51.70;;;;;;4827092;29;20897;-80
2021/06/13 12:01:03;;;;;;;2.77;2.27;;;29.50;52.70;;;;;;4826973;29;20481;-80
2021/06/13 12:03:32;;;;;;;3.10;2.80;;;29.60;53.50;;;;;;4826770;29;20558;-80
2021/06/13 12:08:43;;;;;;;4.23;2.80;;;30.10;50.70;;;;;;4826169;29;20450;-80
2021/06/13 12:11:26;;;;;;;2.80;2.70;;;30.40;51.50;;;;;;4827184;29;21040;-80
2021/06/13 12:13:53;;;;;;;2.63;2.33;;;30.80;49.10;;;;;;4826671;29;20460;-79
2021/06/13 12:16:20;;;;;;;3.60;3.37;;;30.60;48.40;;;;;;4825777;29;20480;-77
2021/06/13 12:19:02;;;;;;;3.73;3.20;;;30.00;48.30;;;;;;4826612;29;20973;-79
2021/06/13 12:21:30;;;;;;;2.73;2.53;;;29.80;49.00;;;;;;4826769;29;20536;-79
2021/06/13 12:24:04;;;;;;;5.23;3.10;;;29.60;48.00;;;;;;4825839;29;20470;-82
2021/06/13 12:29:23;;;;;;;2.37;2.27;;;29.80;46.90;;;;;;4827486;29;20973;-80
2021/06/13 12:31:50;;;;;;;2.90;2.70;;;30.30;46.80;;;;;;4826786;29;20454;-80
2021/06/13 12:34:22;;;;;;;3.20;2.63;;;30.50;46.10;;;;;;4826707;29;20453;-80
2021/06/13 12:36:54;;;;;;;2.50;2.30;;;31.00;47.00;;;;;;4826400;29;20488;-80
2021/06/13 12:39:26;;;;;;;2.53;2.40;;;31.00;44.20;;;;;;4826620;29;20461;-80
2021/06/13 12:41:53;;;;;;;2.03;1.93;;;30.90;45.40;;;;;;4826319;29;20493;-80
2021/06/13 12:44:19;;;;;;;2.80;2.60;;;31.20;44.30;;;;;;4826063;29;20465;-80
2021/06/13 12:46:46;;;;;;;2.40;2.30;;;31.60;44.90;;;;;;4826387;29;20490;-80
2021/06/13 12:49:13;;;;;;;2.80;2.60;;;32.10;45.10;;;;;;4825689;29;20470;-78
2021/06/13 12:51:43;;;;;;;3.23;2.50;;;32.70;43.80;;;;;;4825229;29;20475;-78
2021/06/13 12:54:17;;;;;;;2.47;2.37;;;33.40;43.70;;;;;;4825223;29;20460;-78
2021/06/13 12:56:46;;;;;;;2.50;2.30;;;33.50;41.20;;;;;;4825296;29;20489;-78
2021/06/13 12:59:12;;;;;;;5.10;2.30;;;33.50;41.40;;;;;;4825438;29;20501;-78
2021/06/13 13:01:42;;;;;;;4.57;2.63;;;33.60;41.10;;;;;;4825127;29;20458;-78
2021/06/13 13:04:09;;;;;;;5.40;3.73;;;33.80;41.80;;;;;;4825839;29;20468;-78